createdAt,value
2018-11-10T00:01:08.912Z,23.77
2018-11-10T00:06:12.514Z,25.40
2018-11-10T00:11:16.078Z,24.57
2018-11-10T00:16:20.695Z,24.60
2018-11-10T00:21:24.514Z,25.53
2018-11-10T00:26:28.387Z,25.47
2018-11-10T00:31:31.965Z,25.03
2018-11-10T00:36:35.935Z,25.37
2018-11-10T00:41:39.772Z,23.63
2018-11-10T00:46:43.847Z,24.10
2018-11-10T00:51:47.429Z,23.30
2018-11-10T00:56:53.089Z,25.90
2018-11-10T01:01:56.711Z,25.60
2018-11-10T01:07:00.927Z,23.90
2018-11-10T01:12:05.411Z,24.63
2018-11-10T01:17:09.000Z,25.47
2018-11-10T01:22:12.863Z,25.77
2018-11-10T01:27:16.735Z,26.33
2018-11-10T01:32:20.314Z,24.93
2018-11-10T01:37:24.039Z,25.00
2018-11-10T01:42:27.662Z,26.13
2018-11-10T01:47:34.024Z,25.70
2018-11-10T01:52:37.619Z,24.90
2018-11-10T01:57:45.609Z,25.97
2018-11-10T02:02:49.474Z,26.47
2018-11-10T02:07:53.063Z,25.90
2018-11-10T02:12:57.555Z,25.57
2018-11-10T02:18:01.495Z,25.77
2018-11-10T02:23:05.580Z,24.07
2018-11-10T02:28:09.887Z,24.30
2018-11-10T02:33:14.593Z,27.50
2018-11-10T02:38:19.390Z,25.70
2018-11-10T02:43:22.955Z,25.53
2018-11-10T02:48:26.674Z,25.87
2018-11-10T02:53:30.892Z,26.80
2018-11-10T02:58:34.527Z,26.30
2018-11-10T03:03:38.109Z,27.20
2018-11-10T03:08:41.770Z,26.27
2018-11-10T03:13:46.024Z,24.83
2018-11-10T03:18:49.687Z,25.07
2018-11-10T03:23:53.328Z,26.00
2018-11-10T03:28:57.763Z,25.53
2018-11-10T03:34:02.699Z,25.83
2018-11-10T03:39:09.515Z,25.67
2018-11-10T03:44:13.168Z,24.87
2018-11-10T03:49:17.087Z,26.07
2018-11-10T03:54:20.817Z,24.90
2018-11-10T03:59:24.599Z,24.70
2018-11-10T04:04:28.203Z,24.87
2018-11-10T04:09:31.936Z,24.97
2018-11-10T04:14:35.649Z,25.33
2018-11-10T04:19:39.770Z,25.13
2018-11-10T04:24:43.406Z,24.93
2018-11-10T04:29:47.086Z,25.93
2018-11-10T04:34:52.100Z,25.30
2018-11-10T04:39:56.278Z,24.53
2018-11-10T04:44:59.896Z,26.33
2018-11-10T04:50:04.236Z,26.73
2018-11-10T04:55:08.863Z,25.80
2018-11-10T05:00:15.939Z,25.27
2018-11-10T05:05:20.037Z,26.40
2018-11-10T05:10:23.729Z,26.03
2018-11-10T05:15:27.363Z,26.40
2018-11-10T05:20:31.296Z,24.90
2018-11-10T05:25:35.008Z,25.90
2018-11-10T05:30:38.610Z,24.60
2018-11-10T05:35:42.914Z,26.03
2018-11-10T05:40:46.750Z,25.60
2018-11-10T05:45:50.993Z,25.17
2018-11-10T05:50:54.613Z,25.53
2018-11-10T05:55:58.242Z,25.23
2018-11-10T06:01:01.915Z,25.30
2018-11-10T06:06:06.702Z,24.90
2018-11-10T06:11:10.650Z,25.87
2018-11-10T06:16:14.576Z,26.10
2018-11-10T06:21:18.123Z,27.60
2018-11-10T06:26:21.740Z,26.40
2018-11-10T06:31:25.447Z,25.17
2018-11-10T06:36:29.460Z,25.17
2018-11-10T06:41:33.141Z,24.50
2018-11-10T06:46:36.747Z,23.87
2018-11-10T06:51:40.347Z,25.23
2018-11-10T06:56:44.673Z,25.20
2018-11-10T07:01:48.540Z,24.13
2018-11-10T07:06:52.966Z,24.20
2018-11-10T07:11:57.033Z,23.83
2018-11-10T07:17:01.309Z,22.43
2018-11-10T07:22:05.505Z,21.50
2018-11-10T07:27:09.173Z,22.30
2018-11-10T07:32:12.768Z,20.90
2018-11-10T07:37:16.510Z,20.90
2018-11-10T07:42:20.176Z,20.70
2018-11-10T07:47:23.927Z,19.83
2018-11-10T07:52:27.565Z,19.57
2018-11-10T07:57:31.663Z,20.70
2018-11-10T08:02:35.797Z,20.97
2018-11-10T08:07:41.620Z,20.50
2018-11-10T08:12:45.435Z,19.60
2018-11-10T08:17:49.063Z,18.57
2018-11-10T08:22:52.720Z,18.30
2018-11-10T08:27:56.315Z,18.90
2018-11-10T08:32:59.941Z,19.20
2018-11-10T08:38:04.538Z,25.83
2018-11-10T08:43:08.465Z,19.57
2018-11-10T08:48:12.237Z,21.43
2018-11-10T08:53:15.920Z,20.60
2018-11-10T08:58:19.595Z,20.67
2018-11-10T09:03:23.209Z,21.17
2018-11-10T09:08:26.854Z,20.90
2018-11-10T09:13:30.488Z,20.97
2018-11-10T09:18:34.840Z,23.07
2018-11-10T09:23:38.551Z,23.40
2018-11-10T09:28:42.150Z,23.00
2018-11-10T09:33:45.830Z,23.10
2018-11-10T09:38:50.061Z,23.13
2018-11-10T09:43:53.954Z,21.60
2018-11-10T09:48:57.533Z,22.90
2018-11-10T09:54:01.121Z,21.37
2018-11-10T09:59:04.825Z,23.17
2018-11-10T10:04:08.619Z,23.57
2018-11-10T10:09:12.444Z,21.00
2018-11-10T10:14:16.243Z,22.23
2018-11-10T10:19:19.981Z,22.70
2018-11-10T10:24:23.573Z,20.93
2018-11-10T10:29:27.182Z,22.23
2018-11-10T10:34:30.861Z,21.70
2018-11-10T10:39:34.444Z,20.83
2018-11-10T10:44:38.887Z,20.87
2018-11-10T10:49:42.502Z,21.60
2018-11-10T10:54:46.102Z,20.57
2018-11-10T10:59:50.167Z,19.70
2018-11-10T11:04:54.674Z,17.50
2018-11-10T11:09:58.554Z,20.10
2018-11-10T11:15:02.233Z,19.90
2018-11-10T11:20:06.751Z,18.63
2018-11-10T11:25:10.493Z,21.10
2018-11-10T11:30:14.181Z,22.40
2018-11-10T11:35:17.973Z,17.00
2018-11-10T11:40:21.801Z,15.90
2018-11-10T11:45:25.919Z,17.17
2018-11-10T11:50:29.692Z,18.33
2018-11-10T11:55:33.757Z,17.80
2018-11-10T12:00:37.334Z,17.13
2018-11-10T12:05:41.759Z,16.73
2018-11-10T12:10:46.518Z,15.90
2018-11-10T12:15:50.160Z,15.90
2018-11-10T12:20:54.865Z,15.40
2018-11-10T12:25:58.574Z,15.87
2018-11-10T12:31:02.351Z,15.40
2018-11-10T12:36:06.173Z,16.10
2018-11-10T12:41:09.939Z,15.67
2018-11-10T12:46:13.620Z,14.87
2018-11-10T12:51:17.326Z,13.90
2018-11-10T12:56:21.146Z,16.40
2018-11-10T13:01:26.680Z,15.63
2018-11-10T13:06:31.165Z,15.50
2018-11-10T13:11:35.200Z,15.23
2018-11-10T13:16:45.583Z,15.47
2018-11-10T13:21:49.259Z,14.60
2018-11-10T13:26:55.725Z,16.80
2018-11-10T13:31:59.545Z,17.10
2018-11-10T13:37:03.220Z,18.00
2018-11-10T13:42:07.172Z,16.77
2018-11-10T13:47:11.013Z,16.37
2018-11-10T13:52:15.143Z,15.93
2018-11-10T13:57:18.877Z,17.70
2018-11-10T14:02:22.837Z,16.60
2018-11-10T14:07:26.432Z,18.43
2018-11-10T14:12:30.186Z,17.33
2018-11-10T14:17:33.814Z,16.37
2018-11-10T14:22:38.336Z,16.07
2018-11-10T14:27:42.970Z,16.70
2018-11-10T14:32:47.059Z,15.17
2018-11-10T14:37:51.079Z,16.70
2018-11-10T14:42:55.107Z,15.43
2018-11-10T14:47:59.221Z,16.07
2018-11-10T14:53:03.213Z,16.30
2018-11-10T14:58:07.375Z,16.30
2018-11-10T15:03:11.370Z,16.23
2018-11-10T15:08:15.588Z,17.80
2018-11-10T15:13:19.578Z,16.47
2018-11-10T15:18:23.667Z,16.90
2018-11-10T15:23:27.623Z,17.03
2018-11-10T15:28:31.230Z,18.10
2018-11-10T15:33:34.839Z,16.70
2018-11-10T15:38:39.041Z,17.87
2018-11-10T15:43:42.786Z,15.90
2018-11-10T15:48:46.387Z,16.90
2018-11-10T15:53:51.552Z,16.90
2018-11-10T15:58:55.180Z,18.27
2018-11-10T16:03:58.839Z,17.90
2018-11-10T16:09:02.423Z,15.90
2018-11-10T16:14:06.068Z,16.53
2018-11-10T16:19:09.684Z,16.00
2018-11-10T16:24:13.347Z,17.03
2018-11-10T16:29:16.950Z,17.53
2018-11-10T16:34:20.522Z,17.70
2018-11-10T16:39:25.741Z,18.73
2018-11-10T16:44:29.594Z,17.17
2018-11-10T16:49:33.222Z,16.70
2018-11-10T16:54:36.826Z,17.00
2018-11-10T16:59:40.578Z,17.70
2018-11-10T17:04:44.179Z,17.87
2018-11-10T17:09:48.922Z,18.77
2018-11-10T17:14:52.592Z,17.70
2018-11-10T17:19:56.252Z,18.27
2018-11-10T17:24:59.884Z,18.27
2018-11-10T17:30:03.730Z,17.43
2018-11-10T17:35:08.423Z,16.30
2018-11-10T17:40:13.009Z,18.27
2018-11-10T17:45:18.001Z,20.27
2018-11-10T17:50:22.563Z,20.10
2018-11-10T17:55:26.195Z,19.63
2018-11-10T18:00:29.862Z,17.57
2018-11-10T18:05:33.517Z,18.93
2018-11-10T18:10:37.136Z,19.00
2018-11-10T18:15:40.713Z,18.90
2018-11-10T18:20:44.402Z,19.90
2018-11-10T18:25:48.168Z,20.43
2018-11-10T18:30:51.867Z,19.43
2018-11-10T18:35:55.546Z,21.20
2018-11-10T18:40:59.204Z,19.67
2018-11-10T18:46:02.938Z,17.90
2018-11-10T18:51:06.716Z,19.57
2018-11-10T18:56:10.340Z,19.03
2018-11-10T19:01:14.307Z,19.93
2018-11-10T19:06:17.918Z,19.33
2018-11-10T19:11:21.817Z,18.60
2018-11-10T19:16:28.598Z,19.17
2018-11-10T19:21:33.241Z,18.73
2018-11-10T19:26:39.577Z,18.03
2018-11-10T19:31:43.305Z,17.40
2018-11-10T19:36:47.617Z,19.37
2018-11-10T19:41:51.440Z,22.80
2018-11-10T19:46:55.086Z,20.07
2018-11-10T19:51:58.889Z,19.37
2018-11-10T19:57:02.552Z,19.70
2018-11-10T20:02:10.123Z,21.70
2018-11-10T20:07:13.766Z,20.17
2018-11-10T20:12:17.404Z,22.67
2018-11-10T20:17:21.187Z,24.73
2018-11-10T20:22:25.048Z,21.33
2018-11-10T20:27:28.979Z,23.80
2018-11-10T20:32:32.626Z,21.83
2018-11-10T20:37:39.004Z,21.20
2018-11-10T20:42:42.913Z,20.33
2018-11-10T20:47:46.518Z,20.83
2018-11-10T20:52:51.056Z,21.63
2018-11-10T20:57:54.673Z,20.87
2018-11-10T21:02:58.304Z,20.73
2018-11-10T21:08:02.572Z,26.40
2018-11-10T21:13:06.247Z,19.40
2018-11-10T21:18:10.100Z,23.33
2018-11-10T21:23:13.767Z,20.20
2018-11-10T21:28:17.367Z,20.40
2018-11-10T21:33:21.361Z,21.10
2018-11-10T21:38:25.314Z,21.97
2018-11-10T21:43:29.651Z,22.20
2018-11-10T21:48:33.247Z,21.90
2018-11-10T21:53:36.835Z,21.20
2018-11-10T21:58:40.636Z,19.93
2018-11-10T22:03:44.251Z,20.70
2018-11-10T22:08:47.816Z,21.70
2018-11-10T22:13:51.623Z,21.83
2018-11-10T22:18:55.176Z,21.90
2018-11-10T22:23:58.787Z,31.27
2018-11-10T22:29:02.364Z,26.50
2018-11-10T22:34:06.146Z,26.60
2018-11-10T22:39:10.752Z,25.57
2018-11-10T22:44:14.363Z,24.20
2018-11-10T22:49:17.992Z,25.10
2018-11-10T22:54:21.749Z,21.80
2018-11-10T22:59:25.375Z,23.87
2018-11-10T23:04:29.688Z,26.07
2018-11-10T23:09:33.389Z,23.00
2018-11-10T23:14:36.983Z,22.30
2018-11-10T23:19:40.852Z,23.53
2018-11-10T23:24:44.711Z,21.77
2018-11-10T23:29:48.302Z,22.00
2018-11-10T23:34:51.927Z,22.13
2018-11-10T23:39:55.592Z,22.40
2018-11-10T23:44:59.191Z,22.43
2018-11-10T23:50:03.113Z,22.00
2018-11-10T23:55:07.989Z,21.17
